Time;durP1;ratioP1;P1;durP2;ratioP2;P2;SDS_P1;SDS_P2;PMS_P1;PMS_P2;Temp;Humidity;BMP_temperature;BMP_pressure;BME280_temperature;BME280_humidity;BME280_pressure;Samples;Min_cycle;Max_cycle;Signal;HPM_P1;HPM_P2
2022/12/07 00:00:53;;;;;;;24.98;8.68;;;;;;;3.12;83.85;100908.38;5040675;28;20067;-75
2022/12/07 00:03:19;;;;;;;16.60;7.43;;;;;;;2.84;85.23;100905.44;5045528;28;20048;-75
2022/12/07 00:05:46;;;;;;;20.05;8.48;;;;;;;2.70;85.38;100904.78;5037205;28;20040;-75
2022/12/07 00:08:12;;;;;;;17.92;8.50;;;;;;;2.53;87.06;100899.03;5036208;28;20045;-75
2022/12/07 00:10:39;;;;;;;20.80;8.75;;;;;;;2.75;86.74;100890.03;5038871;28;20041;-76
2022/12/07 00:13:05;;;;;;;20.38;8.75;;;;;;;3.05;84.94;100886.03;5038920;28;20052;-76
2022/12/07 00:15:34;;;;;;;20.27;8.15;;;;;;;3.33;82.94;100876.00;5031837;28;20055;-76
2022/12/07 00:18:01;;;;;;;21.50;9.73;;;;;;;3.13;82.97;100879.00;5027855;28;20044;-76
2022/12/07 00:20:27;;;;;;;19.85;8.48;;;;;;;3.12;83.69;100881.59;5032184;28;20044;-76
2022/12/07 00:22:54;;;;;;;22.52;8.35;;;;;;;3.14;83.07;100874.66;5032754;28;20045;-75
2022/12/07 00:25:20;;;;;;;26.95;8.32;;;;;;;3.12;83.03;100872.09;5023357;28;20048;-75
2022/12/07 00:27:46;;;;;;;27.27;8.57;;;;;;;2.79;84.64;100864.94;5035611;28;20044;-75
2022/12/07 00:30:13;;;;;;;21.25;8.32;;;;;;;2.67;85.04;100863.41;5039935;28;20477;-75
2022/12/07 00:32:41;;;;;;;20.90;8.70;;;;;;;2.80;84.73;100858.91;5022630;28;20056;-75
2022/12/07 00:35:08;;;;;;;27.02;9.35;;;;;;;2.79;85.36;100865.81;5032108;28;20053;-75
2022/12/07 00:37:35;;;;;;;24.00;8.80;;;;;;;2.93;84.61;100850.00;5040749;28;20044;-75
2022/12/07 00:40:01;;;;;;;25.25;9.82;;;;;;;3.21;84.16;100850.34;5030061;28;20057;-76
2022/12/07 00:42:28;;;;;;;30.48;10.05;;;;;;;3.14;83.83;100848.75;5031718;28;20041;-76
2022/12/07 00:44:54;;;;;;;24.77;9.35;;;;;;;2.65;87.24;100848.81;5032144;28;20436;-75
2022/12/07 00:47:21;;;;;;;28.27;10.98;;;;;;;2.47;88.12;100843.94;5021828;28;20497;-75
2022/12/07 00:49:48;;;;;;;27.73;11.23;;;;;;;2.52;89.26;100837.78;5031953;28;20397;-75
2022/12/07 00:52:15;;;;;;;29.20;11.80;;;;;;;2.67;88.89;100829.75;5036314;28;20040;-75
2022/12/07 00:54:41;;;;;;;30.17;11.60;;;;;;;2.93;87.78;100831.88;5044639;28;20045;-75
2022/12/07 00:57:08;;;;;;;35.35;11.52;;;;;;;2.56;89.31;100833.41;5059601;28;20048;-76
2022/12/07 00:59:34;;;;;;;32.03;12.05;;;;;;;2.71;89.07;100834.00;5052186;28;20037;-76
2022/12/07 01:02:01;;;;;;;29.42;11.45;;;;;;;2.75;89.28;100821.84;5042555;28;20060;-76
2022/12/07 01:04:27;;;;;;;27.67;10.88;;;;;;;2.46;90.70;100822.38;5051487;28;20051;-76
2022/12/07 01:06:55;;;;;;;34.53;12.43;;;;;;;2.26;92.46;100820.13;5056009;27;20040;-76
2022/12/07 01:09:22;;;;;;;34.70;11.00;;;;;;;2.58;92.22;100817.00;5054210;28;20048;-76
2022/12/07 01:11:48;;;;;;;35.38;12.50;;;;;;;2.36;92.43;100828.59;5056650;27;20044;-76
2022/12/07 01:14:14;;;;;;;38.20;13.57;;;;;;;2.37;93.78;100819.94;5052431;28;20052;-76
2022/12/07 01:16:41;;;;;;;35.75;13.48;;;;;;;2.36;93.33;100820.84;5041686;28;20044;-76
2022/12/07 01:19:07;;;;;;;32.63;11.40;;;;;;;2.82;91.73;100821.72;5050944;28;20181;-76
2022/12/07 01:21:37;;;;;;;28.00;11.23;;;;;;;3.31;88.50;100812.97;5050263;28;20040;-76
2022/12/07 01:24:07;;;;;;;31.15;11.90;;;;;;;3.50;87.10;100816.03;5041678;28;20130;-76
2022/12/07 01:26:33;;;;;;;28.10;11.75;;;;;;;3.35;86.86;100820.66;5051824;28;20044;-77
2022/12/07 01:29:00;;;;;;;30.67;11.90;;;;;;;2.80;90.08;100818.31;5064686;28;20048;-76
2022/12/07 01:31:28;;;;;;;33.47;12.25;;;;;;;2.08;94.72;100817.84;5044792;28;20040;-76
2022/12/07 01:33:56;;;;;;;26.63;11.55;;;;;;;2.08;95.03;100812.66;5063939;28;20241;-75
2022/12/07 01:36:25;;;;;;;39.25;12.10;;;;;;;2.43;93.90;100819.84;5067227;28;20389;-75
2022/12/07 01:38:56;;;;;;;30.70;11.68;;;;;;;2.29;94.25;100814.06;5025910;28;20496;-75
2022/12/07 01:41:25;;;;;;;34.33;14.07;;;;;;;2.27;95.01;100808.91;5042286;27;20565;-75
2022/12/07 01:44:13;;;;;;;31.15;13.02;;;;;;;2.44;94.75;100808.59;5092676;27;20054;-75
2022/12/07 01:46:40;;;;;;;27.67;11.75;;;;;;;2.15;95.63;100803.06;5037490;27;20045;-75
2022/12/07 01:49:10;;;;;;;35.42;13.85;;;;;;;2.02;97.65;100798.97;5020877;28;20052;-74
2022/12/07 01:51:39;;;;;;;30.98;13.05;;;;;;;2.40;95.22;100797.44;5030998;28;20048;-74
2022/12/07 01:54:05;;;;;;;36.28;13.05;;;;;;;2.25;96.53;100795.16;5030906;28;20072;-74
2022/12/07 01:56:34;;;;;;;30.00;10.95;;;;;;;2.47;95.25;100789.59;5021593;28;20048;-72
2022/12/07 01:59:01;;;;;;;28.45;12.15;;;;;;;2.83;93.32;100787.19;5056660;28;20048;-73
2022/12/07 02:01:29;;;;;;;27.15;11.93;;;;;;;2.87;92.81;100773.28;5047577;28;20044;-72
2022/12/07 02:03:56;;;;;;;36.33;13.30;;;;;;;2.61;93.23;100769.50;5040670;28;20059;-72
2022/12/07 02:06:25;;;;;;;34.05;12.23;;;;;;;2.31;94.98;100770.91;5046897;28;20507;-71
2022/12/07 02:08:52;;;;;;;28.50;11.85;;;;;;;2.32;96.16;100773.47;5031491;28;20044;-70
2022/12/07 02:11:19;;;;;;;28.65;12.07;;;;;;;2.37;95.27;100766.47;5020868;28;20048;-70
2022/12/07 02:13:47;;;;;;;30.30;11.88;;;;;;;2.38;95.91;100764.72;5030122;28;20552;-69
2022/12/07 02:16:26;;;;;;;24.67;10.98;;;;;;;2.34;95.69;100751.00;5030405;28;20048;-69
2022/12/07 02:19:29;;;;;;;30.10;12.70;;;;;;;2.51;95.07;100753.28;5030582;28;20409;-70
2022/12/07 02:22:01;;;;;;;17.83;9.45;;;;;;;2.74;94.29;100743.34;5022109;28;20053;-70
2022/12/07 02:24:53;;;;;;;28.98;11.80;;;;;;;2.60;94.85;100753.09;5030743;28;20041;-70
2022/12/07 02:27:46;;;;;;;24.83;10.40;;;;;;;2.75;94.04;100741.59;5074060;28;20396;-70
2022/12/07 02:30:15;;;;;;;21.08;9.88;;;;;;;2.77;94.30;100732.09;5043415;28;20041;-71
2022/12/07 02:32:48;;;;;;;23.70;10.45;;;;;;;3.00;92.98;100735.03;5049532;28;20040;-71
2022/12/07 02:35:19;;;;;;;24.67;10.25;;;;;;;2.91;93.47;100728.31;5050354;28;20079;-71
2022/12/07 02:37:55;;;;;;;22.38;10.52;;;;;;;3.18;91.77;100731.22;5058009;28;20381;-71
2022/12/07 02:40:27;;;;;;;22.30;9.75;;;;;;;3.32;91.52;100726.59;5059729;28;20404;-72
2022/12/07 02:42:59;;;;;;;18.60;9.43;;;;;;;3.48;90.51;100719.28;5040000;28;20040;-72
2022/12/07 02:45:31;;;;;;;21.15;10.23;;;;;;;3.07;92.04;100720.25;5049072;28;20047;-72
2022/12/07 02:47:59;;;;;;;27.50;10.75;;;;;;;3.00;92.02;100721.22;5040583;28;20056;-72
2022/12/07 02:50:27;;;;;;;20.42;9.52;;;;;;;3.08;92.27;100711.56;5049939;28;20048;-72
2022/12/07 02:52:53;;;;;;;19.42;9.27;;;;;;;3.02;93.06;100714.28;5049890;28;20048;-72
2022/12/07 02:55:25;;;;;;;22.70;9.70;;;;;;;2.53;94.42;100707.50;5040221;28;20051;-72
2022/12/07 02:58:06;;;;;;;18.63;9.13;;;;;;;2.70;95.07;100709.75;5050004;28;20067;-72
2022/12/07 03:00:38;;;;;;;20.88;9.43;;;;;;;2.94;93.47;100707.53;5047602;28;20048;-72
2022/12/07 03:03:10;;;;;;;18.00;9.90;;;;;;;2.70;94.06;100702.84;5049213;28;20431;-72
2022/12/07 03:05:58;;;;;;;22.85;10.50;;;;;;;2.74;94.69;100696.72;5049185;28;20048;-73
2022/12/07 03:08:34;;;;;;;18.90;9.18;;;;;;;2.99;94.13;100689.31;5052215;28;20041;-73
2022/12/07 03:11:04;;;;;;;20.60;9.57;;;;;;;3.35;92.10;100696.28;5046619;28;20044;-73
2022/12/07 03:13:35;;;;;;;21.13;8.75;;;;;;;3.34;92.09;100678.16;5049074;28;20511;-73
2022/12/07 03:16:10;;;;;;;18.05;8.63;;;;;;;3.64;91.06;100685.22;5041363;28;20048;-73
2022/12/07 03:18:41;;;;;;;21.88;10.30;;;;;;;3.57;90.50;100688.84;5040567;28;20102;-75
2022/12/07 03:21:12;;;;;;;22.52;9.88;;;;;;;3.83;90.29;100676.09;5048827;28;20056;-74
2022/12/07 03:23:43;;;;;;;19.15;9.63;;;;;;;3.71;91.06;100680.72;5039141;28;20693;-74
2022/12/07 03:26:13;;;;;;;20.98;9.55;;;;;;;3.85;90.35;100679.47;5049508;28;20075;-74
2022/12/07 03:28:46;;;;;;;19.48;9.25;;;;;;;3.81;90.81;100683.03;5062916;28;20056;-74
2022/12/07 03:31:17;;;;;;;19.85;9.18;;;;;;;3.87;90.36;100669.94;5039077;28;20048;-74
2022/12/07 03:33:50;;;;;;;24.67;10.52;;;;;;;4.11;89.18;100675.38;5048207;28;20048;-73
2022/12/07 03:36:22;;;;;;;17.15;8.43;;;;;;;3.95;90.27;100671.47;5039147;28;20048;-72
2022/12/07 03:38:55;;;;;;;19.17;8.70;;;;;;;4.02;89.59;100670.44;5048341;28;20408;-70
2022/12/07 03:41:24;;;;;;;;;;;;;;;3.78;90.89;100664.13;5049796;28;20037;-70
2022/12/07 03:43:51;;;;;;;20.90;9.57;;;;;;;4.02;90.20;100660.06;5042067;28;20424;-70
2022/12/07 03:46:27;;;;;;;20.40;9.05;;;;;;;4.06;89.83;100662.53;5028350;28;20047;-70
2022/12/07 03:49:00;;;;;;;16.40;8.30;;;;;;;3.97;90.17;100659.31;5037151;28;20047;-70
2022/12/07 03:51:34;;;;;;;22.55;9.70;;;;;;;3.80;91.29;100651.97;5040399;28;20049;-70
2022/12/07 03:54:08;;;;;;;17.20;9.27;;;;;;;3.87;91.21;100643.16;5044396;28;20048;-70
2022/12/07 03:56:36;;;;;;;20.73;9.68;;;;;;;4.08;90.05;100644.31;5048495;28;20244;-70
2022/12/07 03:59:02;;;;;;;19.70;10.15;;;;;;;3.98;90.39;100635.94;5048686;28;20048;-70
2022/12/07 04:01:30;;;;;;;25.42;10.68;;;;;;;4.05;90.94;100644.41;5039018;28;20047;-71
2022/12/07 04:03:57;;;;;;;20.35;10.20;;;;;;;4.22;90.32;100648.25;5048808;28;20052;-71
2022/12/07 04:06:23;;;;;;;24.83;11.68;;;;;;;4.33;89.27;100641.00;5048642;28;20082;-71
2022/12/07 04:08:50;;;;;;;24.10;10.60;;;;;;;4.05;92.30;100654.78;5038291;28;20040;-71
2022/12/07 04:11:16;;;;;;;35.67;11.10;;;;;;;4.23;91.94;100649.09;5048490;28;20044;-71
2022/12/07 04:16:27;;;;;;;29.15;12.20;;;;;;;4.63;91.00;100648.81;5047239;28;20499;-71
2022/12/07 04:18:54;;;;;;;25.88;12.38;;;;;;;4.65;90.73;100647.91;5048161;28;20469;-71
2022/12/07 04:21:21;;;;;;;24.50;12.00;;;;;;;4.84;90.58;100643.84;5040843;28;20489;-71
2022/12/07 04:23:47;;;;;;;29.90;12.48;;;;;;;4.86;90.48;100636.88;5048505;28;20052;-71
2022/12/07 04:26:14;;;;;;;24.40;11.80;;;;;;;4.87;90.34;100650.72;5048247;28;20056;-71
2022/12/07 04:28:40;;;;;;;29.15;12.32;;;;;;;4.79;90.90;100640.56;5048314;28;20052;-74
2022/12/07 04:31:07;;;;;;;23.95;11.63;;;;;;;4.69;91.32;100636.50;5029991;28;20061;-71
2022/12/07 04:33:33;;;;;;;25.35;11.73;;;;;;;4.67;91.87;100632.25;5054829;28;20040;-71
2022/12/07 04:36:01;;;;;;;22.40;11.85;;;;;;;4.65;91.95;100634.91;5032682;28;20053;-71
2022/12/07 04:38:27;;;;;;;26.25;11.73;;;;;;;4.84;91.79;100636.06;5031772;28;20108;-71
2022/12/07 04:40:54;;;;;;;27.45;13.13;;;;;;;4.82;91.47;100624.88;5043113;28;20052;-71
2022/12/07 04:43:21;;;;;;;22.27;11.85;;;;;;;4.88;90.82;100619.47;5047789;28;20480;-71
2022/12/07 04:45:48;;;;;;;24.92;12.45;;;;;;;5.03;89.79;100604.31;5039607;27;20408;-71
2022/12/07 04:48:15;;;;;;;28.95;12.68;;;;;;;5.23;88.76;100607.16;5049102;27;20041;-71
2022/12/07 04:50:41;;;;;;;23.58;12.50;;;;;;;5.13;88.15;100609.22;5049113;27;20044;-71
2022/12/07 04:53:09;;;;;;;25.60;13.00;;;;;;;5.17;88.42;100615.16;5039927;27;20044;-71
2022/12/07 04:55:36;;;;;;;30.90;13.50;;;;;;;5.15;88.97;100607.38;5048340;27;20044;-71
2022/12/07 04:58:03;;;;;;;25.48;12.35;;;;;;;5.03;89.52;100604.31;5058188;28;20048;-71
2022/12/07 05:00:29;;;;;;;25.45;12.45;;;;;;;4.98;89.72;100603.63;5053704;28;20115;-71
2022/12/07 05:02:56;;;;;;;26.05;13.38;;;;;;;5.05;89.43;100603.38;5072498;28;20043;-71
2022/12/07 05:05:22;;;;;;;23.02;11.45;;;;;;;4.90;89.46;100599.53;5070589;28;20454;-70
2022/12/07 05:07:49;;;;;;;29.85;13.45;;;;;;;5.14;89.23;100605.69;5045935;28;20048;-70
2022/12/07 05:10:17;;;;;;;28.58;13.57;;;;;;;4.99;90.29;100615.72;5056144;28;20408;-72
2022/12/07 05:12:43;;;;;;;26.25;13.38;;;;;;;4.85;90.50;100614.38;5052684;28;20041;-71
2022/12/07 05:15:10;;;;;;;31.65;14.05;;;;;;;4.89;91.22;100610.78;5042412;28;20507;-71
2022/12/07 05:17:37;;;;;;;26.45;12.88;;;;;;;4.95;91.26;100614.13;5051551;27;20048;-70
2022/12/07 05:20:04;;;;;;;26.17;14.73;;;;;;;4.72;92.48;100617.41;5052577;27;20048;-71
2022/12/07 05:22:31;;;;;;;26.83;13.90;;;;;;;4.77;92.19;100600.78;5042928;27;20048;-71
2022/12/07 05:24:57;;;;;;;21.95;11.50;;;;;;;5.09;90.53;100604.13;5051641;27;20052;-72
2022/12/07 05:27:25;;;;;;;24.00;12.73;;;;;;;5.36;88.66;100611.03;5052354;27;20049;-72
2022/12/07 05:29:52;;;;;;;25.65;13.80;;;;;;;5.37;87.20;100605.81;5053650;28;20051;-71
2022/12/07 05:32:19;;;;;;;26.00;13.00;;;;;;;5.09;89.12;100611.94;5052255;28;20045;-71
2022/12/07 05:34:45;;;;;;;27.17;13.80;;;;;;;5.11;88.95;100608.38;5051340;28;20044;-72
2022/12/07 05:37:12;;;;;;;29.77;13.38;;;;;;;5.18;88.91;100603.84;5048226;28;20040;-73
2022/12/07 05:39:40;;;;;;;28.17;13.30;;;;;;;5.48;87.26;100604.59;5088519;27;20111;-72
2022/12/07 05:42:12;;;;;;;25.30;12.38;;;;;;;5.68;85.56;100597.84;5077502;27;20040;-72
2022/12/07 05:44:41;;;;;;;23.33;11.75;;;;;;;5.46;86.39;100615.06;5072128;28;20415;-72
2022/12/07 05:47:08;;;;;;;24.48;12.02;;;;;;;5.25;87.35;100606.19;5071568;28;20044;-72
2022/12/07 05:49:34;;;;;;;22.15;12.77;;;;;;;5.27;88.33;100603.56;5061501;27;20044;-72
2022/12/07 05:52:01;;;;;;;23.50;11.95;;;;;;;5.26;88.41;100620.03;5061684;28;20047;-72
2022/12/07 05:54:27;;;;;;;27.90;13.00;;;;;;;5.06;89.44;100609.44;5054970;28;20044;-72
2022/12/07 05:56:54;;;;;;;22.35;11.18;;;;;;;5.21;89.12;100614.97;5048957;28;20051;-72
2022/12/07 05:59:22;;;;;;;21.85;12.30;;;;;;;5.47;87.22;100603.75;5061218;28;20059;-72
2022/12/07 06:01:50;;;;;;;24.42;12.65;;;;;;;5.46;86.98;100594.25;5050843;28;20048;-72
2022/12/07 06:04:17;;;;;;;22.23;11.02;;;;;;;5.39;87.86;100603.16;5041632;28;20058;-73
2022/12/07 06:06:44;;;;;;;21.58;11.13;;;;;;;5.31;87.37;100597.38;5051165;28;20056;-72
2022/12/07 06:09:10;;;;;;;20.15;11.38;;;;;;;5.30;88.10;100595.66;5058102;28;20055;-72
2022/12/07 06:14:21;;;;;;;21.75;11.40;;;;;;;5.21;88.56;100598.56;5077073;28;20051;-72
2022/12/07 06:16:50;;;;;;;20.52;10.45;;;;;;;5.37;88.01;100598.00;5071639;28;20415;-72
2022/12/07 06:19:16;;;;;;;23.02;10.65;;;;;;;5.34;87.38;100592.06;5059739;28;20044;-72
2022/12/07 06:21:43;;;;;;;19.15;10.90;;;;;;;5.46;87.15;100594.25;5050434;28;20048;-73
2022/12/07 06:24:12;;;;;;;22.00;10.55;;;;;;;5.16;88.32;100592.66;5050346;28;20438;-72
2022/12/07 06:26:38;;;;;;;20.38;10.70;;;;;;;5.26;88.53;100604.44;5049134;28;20055;-72
2022/12/07 06:29:05;;;;;;;19.38;10.50;;;;;;;5.16;88.48;100603.06;5058335;28;20048;-72
2022/12/07 06:31:32;;;;;;;19.10;10.68;;;;;;;5.23;87.97;100592.41;5069363;28;20047;-72
2022/12/07 06:34:00;;;;;;;20.70;10.98;;;;;;;5.13;88.51;100593.63;5066225;28;20155;-72
2022/12/07 06:36:27;;;;;;;21.27;11.32;;;;;;;5.29;87.54;100597.41;5067158;28;20731;-72
2022/12/07 06:38:54;;;;;;;19.00;9.15;;;;;;;5.38;86.96;100606.66;5061245;28;20043;-72
2022/12/07 06:41:21;;;;;;;17.88;8.82;;;;;;;5.48;87.11;100605.44;5060920;27;20056;-72
2022/12/07 06:43:47;;;;;;;20.20;9.10;;;;;;;5.49;87.34;100601.97;5050322;27;20079;-72
2022/12/07 06:46:14;;;;;;;16.85;10.00;;;;;;;5.32;87.57;100602.50;5050718;27;20040;-67
2022/12/07 06:48:40;;;;;;;18.35;10.32;;;;;;;5.34;87.19;100605.06;5045228;27;20052;-67
2022/12/07 06:51:08;;;;;;;18.45;9.65;;;;;;;5.24;88.05;100606.25;5049053;27;20048;-67
2022/12/07 06:53:35;;;;;;;18.45;8.68;;;;;;;5.24;87.85;100611.47;5049443;28;20047;-67
2022/12/07 06:56:02;;;;;;;16.35;8.65;;;;;;;5.27;87.36;100600.97;5044974;28;20714;-67
2022/12/07 06:58:28;;;;;;;13.73;7.72;;;;;;;5.42;87.12;100605.66;5049738;28;20044;-66
2022/12/07 07:00:55;;;;;;;11.15;6.28;;;;;;;5.47;85.96;100608.13;5051026;27;20052;-66
2022/12/07 07:03:21;;;;;;;14.55;7.47;;;;;;;5.57;85.00;100610.38;5033775;27;20044;-67
2022/12/07 07:05:48;;;;;;;10.88;6.80;;;;;;;5.80;83.87;100609.59;5084754;27;20052;-66
2022/12/07 07:08:16;;;;;;;17.60;6.85;;;;;;;5.67;84.37;100609.16;5056950;28;20048;-66
2022/12/07 07:10:42;;;;;;;12.98;6.10;;;;;;;5.57;84.63;100612.97;5040222;28;20048;-67
2022/12/07 07:13:09;;;;;;;15.05;6.53;;;;;;;5.47;84.34;100616.75;5049471;28;20048;-67
2022/12/07 07:15:37;;;;;;;12.88;6.03;;;;;;;5.24;85.05;100624.47;5049773;28;20056;-67
2022/12/07 07:18:04;;;;;;;15.32;6.80;;;;;;;5.50;84.21;100624.47;5040344;28;20055;-66
2022/12/07 07:20:31;;;;;;;18.00;6.53;;;;;;;5.64;83.78;100619.66;5047995;28;20044;-66
2022/12/07 07:22:57;;;;;;;11.82;4.80;;;;;;;5.73;82.59;100631.50;5048949;28;20051;-66
2022/12/07 07:25:25;;;;;;;12.90;5.85;;;;;;;5.56;83.37;100626.00;5032932;27;20048;-66
2022/12/07 07:27:51;;;;;;;9.27;4.93;;;;;;;5.50;83.38;100634.88;5052406;28;20087;-66
2022/12/07 07:30:18;;;;;;;19.17;6.40;;;;;;;5.63;83.06;100622.31;5049583;28;20048;-66
2022/12/07 07:32:44;;;;;;;11.70;4.55;;;;;;;5.61;82.96;100634.53;5038292;28;20040;-66
2022/12/07 07:35:11;;;;;;;12.32;5.65;;;;;;;5.68;82.71;100639.47;5048711;28;20048;-65
2022/12/07 07:37:37;;;;;;;12.77;4.90;;;;;;;5.73;81.97;100627.13;5048800;27;20052;-66
2022/12/07 07:40:05;;;;;;;10.13;5.32;;;;;;;5.74;81.92;100636.66;5037915;27;20048;-66
2022/12/07 07:42:32;;;;;;;11.35;5.35;;;;;;;5.80;82.14;100641.63;5061523;27;20046;-66
2022/12/07 07:44:59;;;;;;;10.93;5.35;;;;;;;5.73;82.37;100634.09;5072414;27;20052;-66
2022/12/07 07:47:25;;;;;;;14.27;5.60;;;;;;;5.81;81.28;100639.88;5048114;28;20044;-65
2022/12/07 07:49:52;;;;;;;11.02;5.53;;;;;;;5.92;81.70;100642.16;5048351;28;20040;-65
2022/12/07 07:52:18;;;;;;;10.43;5.32;;;;;;;5.61;83.23;100639.72;5049206;28;20048;-66
2022/12/07 07:54:45;;;;;;;10.50;5.32;;;;;;;5.85;82.22;100638.88;5039227;28;20070;-66
2022/12/07 07:57:11;;;;;;;12.55;4.75;;;;;;;5.77;81.71;100638.28;5048428;28;20424;-66
2022/12/07 07:59:39;;;;;;;11.65;5.65;;;;;;;5.86;81.37;100641.50;5058906;28;20451;-66
2022/12/07 08:02:05;;;;;;;11.27;5.50;;;;;;;5.68;82.23;100649.03;5091320;28;20047;-66
2022/12/07 08:04:32;;;;;;;8.43;4.85;;;;;;;5.44;82.55;100648.06;5068834;28;20254;-66
2022/12/07 08:06:58;;;;;;;9.88;4.80;;;;;;;5.56;82.37;100650.28;5069295;28;20063;-66
2022/12/07 08:09:24;;;;;;;10.05;5.07;;;;;;;5.95;80.83;100636.88;5059509;28;20067;-66
2022/12/07 08:11:51;;;;;;;11.95;4.90;;;;;;;5.78;81.22;100646.06;5069113;28;20048;-66
2022/12/07 08:14:17;;;;;;;13.90;5.43;;;;;;;6.22;79.95;100646.31;5069539;28;20047;-66
2022/12/07 08:16:45;;;;;;;10.73;4.30;;;;;;;6.23;79.21;100650.63;5059221;28;20236;-65
2022/12/07 08:19:11;;;;;;;12.02;4.93;;;;;;;6.11;79.52;100645.84;5076834;27;20047;-65
2022/12/07 08:21:38;;;;;;;11.82;5.22;;;;;;;6.33;78.83;100639.81;5079742;27;20045;-65
2022/12/07 08:24:05;;;;;;;13.20;6.80;;;;;;;6.12;79.24;100640.59;5037372;28;20412;-65
2022/12/07 08:26:32;;;;;;;14.35;4.93;;;;;;;6.03;80.32;100645.25;5072023;27;20431;-65
2022/12/07 08:28:58;;;;;;;15.00;5.57;;;;;;;6.07;79.90;100646.84;5063129;28;20040;-65
2022/12/07 08:31:24;;;;;;;9.07;4.95;;;;;;;6.03;80.51;100642.63;5042347;28;20045;-66
2022/12/07 08:33:52;;;;;;;12.70;5.38;;;;;;;6.00;80.59;100637.53;5056153;28;20083;-66
2022/12/07 08:36:19;;;;;;;11.05;5.28;;;;;;;5.87;81.12;100644.94;5064065;28;20070;-66
2022/12/07 08:38:45;;;;;;;11.90;5.63;;;;;;;6.08;80.52;100648.56;5057298;28;20488;-66
2022/12/07 08:41:12;;;;;;;13.32;5.85;;;;;;;6.18;80.79;100645.56;5052165;28;20047;-66
2022/12/07 08:43:38;;;;;;;10.50;5.75;;;;;;;6.26;80.67;100645.31;5051293;28;20048;-66
2022/12/07 08:46:10;;;;;;;10.85;5.20;;;;;;;6.32;80.52;100642.47;5042002;27;20045;-66
2022/12/07 08:48:41;;;;;;;11.80;5.50;;;;;;;6.28;80.56;100643.50;5051919;27;20091;-66
2022/12/07 08:51:10;;;;;;;11.25;6.00;;;;;;;6.52;79.92;100637.41;5044078;28;20055;-66
2022/12/07 08:53:38;;;;;;;8.40;5.03;;;;;;;6.25;81.42;100647.06;5033990;27;20037;-66
2022/12/07 08:56:07;;;;;;;10.40;5.70;;;;;;;6.29;81.06;100645.19;5050761;27;20048;-66
2022/12/07 08:58:34;;;;;;;10.93;5.78;;;;;;;6.47;81.18;100648.91;5070316;28;20427;-67
2022/12/07 09:01:00;;;;;;;11.65;6.22;;;;;;;6.51;79.61;100658.28;5053341;28;20571;-66
2022/12/07 09:03:27;;;;;;;15.35;6.00;;;;;;;6.40;80.75;100650.00;5061922;27;20039;-66
2022/12/07 09:05:54;;;;;;;13.63;6.35;;;;;;;6.24;81.11;100650.59;5073012;27;20045;-66
2022/12/07 09:08:23;;;;;;;10.15;5.18;;;;;;;6.16;81.79;100656.94;5041505;28;20045;-66
2022/12/07 09:10:49;;;;;;;12.65;5.13;;;;;;;6.38;80.41;100660.50;5050836;27;20044;-66
2022/12/07 09:13:16;;;;;;;11.57;4.90;;;;;;;6.19;81.50;100662.03;5052282;27;20045;-66
2022/12/07 09:15:42;;;;;;;9.05;4.38;;;;;;;6.17;81.43;100658.66;5045133;28;20068;-66
2022/12/07 09:18:09;;;;;;;10.05;4.40;;;;;;;5.92;81.99;100668.19;5051596;28;20056;-67
2022/12/07 09:20:35;;;;;;;9.00;3.45;;;;;;;6.10;81.80;100673.63;5051289;28;20056;-67
2022/12/07 09:23:01;;;;;;;9.70;3.80;;;;;;;5.99;82.37;100670.53;5040916;28;20072;-66
2022/12/07 09:25:29;;;;;;;6.32;3.22;;;;;;;5.90;83.00;100673.47;5050086;27;20052;-66
2022/12/07 09:27:57;;;;;;;10.55;3.33;;;;;;;6.14;82.11;100669.16;5056358;27;20075;-67
2022/12/07 09:30:23;;;;;;;6.05;3.38;;;;;;;6.10;81.99;100683.16;5049154;27;20064;-67
2022/12/07 09:32:50;;;;;;;5.72;3.33;;;;;;;6.31;81.54;100672.03;5050382;27;20056;-66
2022/12/07 09:35:16;;;;;;;9.43;3.83;;;;;;;6.16;81.35;100662.16;5052098;27;20059;-66
2022/12/07 09:37:43;;;;;;;8.93;3.60;;;;;;;6.53;80.80;100667.75;5041662;27;20052;-66
2022/12/07 09:40:10;;;;;;;6.43;3.20;;;;;;;6.57;79.48;100671.97;5049991;27;20057;-66
2022/12/07 09:42:40;;;;;;;13.00;3.50;;;;;;;6.26;80.17;100660.91;5050147;27;20420;-67
2022/12/07 09:45:12;;;;;;;10.85;3.92;;;;;;;6.31;79.97;100665.06;5044599;27;20747;-67
2022/12/07 09:47:38;;;;;;;8.82;3.80;;;;;;;6.43;79.83;100666.38;5050272;28;20068;-67
2022/12/07 09:50:08;;;;;;;7.60;3.58;;;;;;;6.12;80.86;100666.63;5039981;28;20048;-67
2022/12/07 09:52:36;;;;;;;8.60;3.63;;;;;;;5.97;81.47;100661.94;5050052;28;20067;-67
2022/12/07 09:55:02;;;;;;;8.05;3.47;;;;;;;5.94;82.10;100662.03;5050084;28;20101;-66
2022/12/07 09:57:31;;;;;;;6.05;3.20;;;;;;;6.23;81.35;100661.03;5041624;27;20056;-66
2022/12/07 10:00:02;;;;;;;6.32;3.53;;;;;;;6.36;81.36;100667.50;5067395;28;20059;-66
2022/12/07 10:02:36;;;;;;;10.73;4.10;;;;;;;6.16;81.67;100668.22;5058354;27;20048;-67
2022/12/07 10:05:06;;;;;;;9.35;3.78;;;;;;;5.91;82.32;100667.34;5040392;27;20056;-66
2022/12/07 10:07:33;;;;;;;6.97;3.80;;;;;;;6.01;82.67;100673.09;5050191;28;20065;-66
2022/12/07 10:09:59;;;;;;;7.88;3.42;;;;;;;6.25;81.97;100660.06;5047672;28;20048;-66
2022/12/07 10:12:26;;;;;;;9.75;3.95;;;;;;;6.18;82.06;100657.72;5049741;27;20138;-66
2022/12/07 10:15:01;;;;;;;7.95;4.13;;;;;;;6.07;82.72;100665.91;5077761;27;20054;-66
2022/12/07 10:17:35;;;;;;;7.05;3.60;;;;;;;6.09;82.84;100655.47;5042838;27;20052;-66
2022/12/07 10:20:24;;;;;;;8.68;3.53;;;;;;;5.88;83.04;100651.81;5049979;27;20052;-66
2022/12/07 10:22:58;;;;;;;8.48;3.78;;;;;;;6.14;82.99;100666.53;5034888;27;20048;-66
2022/12/07 10:25:28;;;;;;;6.38;3.70;;;;;;;6.12;82.87;100660.56;5049585;27;20078;-66
2022/12/07 10:28:03;;;;;;;9.57;3.88;;;;;;;6.25;82.17;100656.59;5039504;27;20051;-66
2022/12/07 10:30:32;;;;;;;7.40;3.50;;;;;;;6.02;83.34;100664.38;5065454;27;20059;-66
2022/12/07 10:32:59;;;;;;;9.73;4.05;;;;;;;6.13;81.90;100663.13;5050677;27;20052;-66
2022/12/07 10:35:27;;;;;;;8.65;3.85;;;;;;;6.48;81.21;100661.84;5040281;27;20041;-66
2022/12/07 10:37:55;;;;;;;5.28;2.95;;;;;;;6.28;80.66;100662.56;5050124;27;20572;-66
2022/12/07 10:40:30;;;;;;;7.15;3.20;;;;;;;6.30;80.80;100652.97;5049492;28;20044;-66
2022/12/07 10:43:16;;;;;;;9.20;3.80;;;;;;;6.60;80.81;100653.59;5049591;27;20086;-66
2022/12/07 10:46:02;;;;;;;5.22;2.80;;;;;;;6.69;79.04;100644.56;5044472;27;20048;-66
2022/12/07 10:48:38;;;;;;;5.18;2.60;;;;;;;6.53;79.31;100646.06;5041787;27;20063;-66
2022/12/07 10:51:11;;;;;;;7.15;3.15;;;;;;;6.64;78.35;100644.78;5039048;28;20055;-67
2022/12/07 10:53:48;;;;;;;10.93;3.40;;;;;;;6.75;79.40;100650.44;5047351;28;20412;-67
2022/12/07 10:56:53;;;;;;;6.53;3.10;;;;;;;7.04;78.16;100643.25;5029688;27;20049;-66
2022/12/07 10:59:38;;;;;;;10.00;2.92;;;;;;;7.28;76.57;100635.31;5048254;27;20056;-68
2022/12/07 11:02:25;;;;;;;6.30;3.03;;;;;;;7.34;76.19;100644.66;5042644;28;20055;-69
2022/12/07 11:05:02;;;;;;;8.32;3.25;;;;;;;7.32;77.39;100643.84;5039796;28;20048;-69
2022/12/07 11:07:42;;;;;;;6.28;2.92;;;;;;;7.49;74.05;100641.44;5063765;28;20043;-69
2022/12/07 11:10:16;;;;;;;9.52;3.20;;;;;;;7.59;75.12;100641.91;5048199;28;20059;-69
2022/12/07 11:12:53;;;;;;;10.73;3.35;;;;;;;7.58;74.92;100646.28;5048968;28;20055;-68
2022/12/07 11:15:25;;;;;;;8.20;3.30;;;;;;;7.58;75.26;100632.38;5038919;28;20051;-68
2022/12/07 11:18:02;;;;;;;8.02;3.40;;;;;;;7.45;75.98;100628.59;5052578;28;20055;-68
2022/12/07 11:20:42;;;;;;;7.88;3.28;;;;;;;7.67;74.09;100635.47;5059659;28;20044;-68
2022/12/07 11:23:20;;;;;;;8.13;3.03;;;;;;;7.26;74.59;100624.09;5060480;28;20050;-69
2022/12/07 11:25:53;;;;;;;8.32;2.83;;;;;;;6.93;76.41;100627.19;5038416;28;20123;-69
2022/12/07 11:28:32;;;;;;;7.53;2.72;;;;;;;6.71;77.44;100634.97;5056178;28;20036;-69
2022/12/07 11:31:13;;;;;;;3.92;2.55;;;;;;;6.92;76.01;100625.47;5045932;28;20523;-69
2022/12/07 11:33:46;;;;;;;8.02;2.58;;;;;;;7.33;75.38;100627.31;5048359;28;20045;-68
2022/12/07 11:36:30;;;;;;;7.38;2.67;;;;;;;7.05;76.53;100631.94;5039542;28;20067;-68
2022/12/07 11:39:00;;;;;;;9.70;3.63;;;;;;;7.31;75.57;100616.09;5048539;28;20041;-68